Terminal Aerodrome Forecast
Issued by NWS

Home | Current Version | Previous Version | Text Only | Print | Product List | Glossary Off
Versions: 1 2 3 4 5 6 7 8 9 10 11 12 13 14 15

000
FTUS45 KGGW 271132
TAFOLF
TAF
KOLF 271132Z 2712/2812 08006KT P6SM FEW160
     FM271600 26008KT P6SM SCT160
     FM271800 28013KT P6SM BKN110
     FM272200 30019G27KT P6SM BKN110
     FM280300 33010KT P6SM SCT100=

USA.gov is the U.S. government's official web portal to all federal, state and local government web resources and services.